الصفحة الرئيسية
METAR-TAF:

METAR-TAF

مطار :

بوشهر, إيران

دائرة عرض: 28-59N, خط طول: 050-50E, ارتفاع: 19 متر

مراقبة الطقس الحالي

تاريخ ووقت الإصدار 47 دقيقة قبل الساعة 16:00UTC
ريح 4 عقدة من الجنوب/الجنوب الشرقي
درجة الحرارة 32°درجة مئوية
الرطوبة 59%
ضغط 996 hPa
الرؤية 10 كم أو أكثر
الغيوم لا تقل 1500 م ولا وجود لمزنة ركامية السحاب الأسود

METAR: OIBB 141600Z 16004KT CAVOK 32/23 Q0996 A2942

زمن: 21:17 (16:47 UTC)

توقعات

تاريخ ووقت الإصدار 2ساعات و 47 دقيقة قبل الساعة 14:00UTC
التوقعات صالحة من14 الساعة 15 UTC إلى 14 الساعة 24 UTC
ريح 12 عقدة من الغرب
الرؤية: 7000 متر

TAF: OIBB 141400Z 1415/1424 26012KT 7000 NSC

أرصاد الطقس والتوقعات من أكثر من 4000 مطار (تقارير الطقس للمطار METAR والتنبؤ بالطقس بالمطارTAF).

المحطات المتاحة هي النقط الصفراء والحمراء على الخريطة.

حرك المؤشر فوق النقطة لمعرفة اسم المحطة.

ثم انقر لمعرفة أرصاد وتوقعات الطقس.

لتغيير الخارطة: اضغط على الأزرار الخضراء مع رمز الصليب الأسود للتكبير. على الزر الأخضر مع شرطة للتصغير، أو على الأسهم الخضراء للخرائط المجاورة.


METAR-TAF: